createdAt,value
2022-12-28T00:01:28.446Z,101439.63
2022-12-28T00:03:55.810Z,101437.06
2022-12-28T00:06:23.843Z,101426.78
2022-12-28T00:08:52.799Z,101428.34
2022-12-28T00:11:28.191Z,101431.56
2022-12-28T00:13:59.369Z,101420.53
2022-12-28T00:16:25.736Z,101420.06
2022-12-28T00:18:52.156Z,101421.88
2022-12-28T00:21:18.733Z,101433.03
2022-12-28T00:23:45.153Z,101419.28
2022-12-28T00:26:13.436Z,101418.41
2022-12-28T00:28:40.325Z,101423.34
2022-12-28T00:31:07.004Z,101413.84
2022-12-28T00:33:33.473Z,101411.16
2022-12-28T00:36:01.364Z,101401.66
2022-12-28T00:38:29.131Z,101405.03
2022-12-28T00:40:55.565Z,101398.75
2022-12-28T00:43:21.956Z,101396.19
2022-12-28T00:45:48.550Z,101388.38
2022-12-28T00:48:15.844Z,101392.81
2022-12-28T00:50:43.152Z,101383.31
2022-12-28T00:53:10.125Z,101377.41
2022-12-28T00:55:36.900Z,101374.03
2022-12-28T00:58:03.957Z,101372.25
2022-12-28T01:00:31.461Z,101363.75
2022-12-28T01:02:57.895Z,101351.69
2022-12-28T01:05:24.651Z,101354.25
2022-12-28T01:07:51.104Z,101335.28
2022-12-28T01:10:18.172Z,101343.00
2022-12-28T01:12:44.883Z,101340.41
2022-12-28T01:15:12.903Z,101337.06
2022-12-28T01:17:39.664Z,101336.06
2022-12-28T01:20:07.332Z,101332.72
2022-12-28T01:22:33.733Z,101324.91
2022-12-28T01:25:00.142Z,101322.44
2022-12-28T01:27:26.582Z,101315.72
2022-12-28T01:29:53.026Z,101307.78
2022-12-28T01:32:19.430Z,101300.97
2022-12-28T01:34:45.828Z,101299.97
2022-12-28T01:37:12.294Z,101290.50
2022-12-28T01:39:38.709Z,101283.56
2022-12-28T01:42:05.157Z,101282.47
2022-12-28T01:44:44.636Z,101271.31
2022-12-28T01:47:14.561Z,101271.41
2022-12-28T01:49:51.728Z,101263.59
2022-12-28T01:52:26.391Z,101256.34
2022-12-28T01:54:58.657Z,101251.00
2022-12-28T01:57:27.728Z,101242.75
2022-12-28T02:00:00.211Z,101242.09
2022-12-28T02:02:26.799Z,101234.25
2022-12-28T02:04:53.473Z,101227.91
2022-12-28T02:07:30.237Z,101226.25
2022-12-28T02:10:41.233Z,101219.53
2022-12-28T02:12:43.128Z,101219.53
2022-12-28T02:15:09.957Z,101216.06
2022-12-28T02:17:36.473Z,101202.13
2022-12-28T02:20:03.080Z,101206.47
2022-12-28T02:22:51.819Z,101197.66
2022-12-28T02:25:34.140Z,101183.75
2022-12-28T02:28:37.968Z,101180.59
2022-12-28T02:31:09.051Z,101175.34
2022-12-28T02:33:41.455Z,101178.91
2022-12-28T02:36:18.633Z,101178.91
2022-12-28T02:38:53.265Z,101174.56
2022-12-28T02:41:22.772Z,101165.16
2022-12-28T02:43:49.332Z,101153.31
2022-12-28T02:46:41.383Z,101150.06
2022-12-28T02:49:41.159Z,101146.59
2022-12-28T02:52:30.921Z,101139.59
2022-12-28T02:55:38.029Z,101140.47
2022-12-28T02:58:29.029Z,101130.69
2022-12-28T03:01:17.160Z,101129.09
2022-12-28T03:04:03.843Z,101124.06
2022-12-28T03:07:13.806Z,101110.34
2022-12-28T03:09:47.108Z,101111.41
2022-12-28T03:12:41.217Z,101088.31
2022-12-28T03:15:11.778Z,101079.00
2022-12-28T03:17:58.866Z,101067.84
2022-12-28T03:20:46.902Z,101070.50
2022-12-28T03:23:34.349Z,101068.63
2022-12-28T03:26:20.751Z,101060.25
2022-12-28T03:29:06.358Z,101055.09
2022-12-28T03:31:33.940Z,101053.53
2022-12-28T03:34:07.038Z,101059.69
2022-12-28T03:36:57.393Z,101055.31
2022-12-28T03:39:35.540Z,101050.19
2022-12-28T03:42:37.677Z,101033.19
2022-12-28T03:45:46.312Z,101040.13
2022-12-28T03:48:12.445Z,101032.59
2022-12-28T03:50:41.530Z,101030.22
2022-12-28T03:53:08.910Z,101027.66
2022-12-28T03:55:37.845Z,101030.31
2022-12-28T03:58:05.374Z,101024.59
2022-12-28T04:00:31.969Z,101028.25
2022-12-28T04:02:58.562Z,101023.13
2022-12-28T04:05:25.067Z,101014.81
2022-12-28T04:07:51.504Z,101019.75
2022-12-28T04:10:17.939Z,101026.66
2022-12-28T04:12:44.995Z,101034.56
2022-12-28T04:15:11.533Z,101030.31
2022-12-28T04:17:37.939Z,101031.31
2022-12-28T04:20:05.197Z,101025.50
2022-12-28T04:22:31.620Z,101019.56
2022-12-28T04:24:58.037Z,101021.34
2022-12-28T04:27:24.525Z,101016.19
2022-12-28T04:29:50.974Z,101006.91
2022-12-28T04:32:17.386Z,101006.00
2022-12-28T04:34:48.366Z,100995.72
2022-12-28T04:37:15.431Z,100997.41
2022-12-28T04:39:56.386Z,101004.53
2022-12-28T04:42:25.311Z,100996.19
2022-12-28T04:44:51.752Z,100991.06
2022-12-28T04:47:18.171Z,100991.19
2022-12-28T04:49:44.734Z,100985.13
2022-12-28T04:52:11.131Z,100975.06
2022-12-28T04:54:37.555Z,100973.19
2022-12-28T04:57:04.065Z,100955.97
2022-12-28T04:59:30.551Z,100955.28
2022-12-28T05:01:57.041Z,100943.41
2022-12-28T05:04:23.528Z,100937.56
2022-12-28T05:06:49.972Z,100945.38
2022-12-28T05:09:17.650Z,100949.63
2022-12-28T05:11:44.057Z,100941.81
2022-12-28T05:14:10.443Z,100942.91
2022-12-28T05:16:36.877Z,100947.16
2022-12-28T05:19:03.331Z,100935.09
2022-12-28T05:21:29.955Z,100923.13
2022-12-28T05:23:57.052Z,100923.03
2022-12-28T05:26:28.932Z,100919.66
2022-12-28T05:28:56.206Z,100907.78
2022-12-28T05:31:23.518Z,100910.34
2022-12-28T05:33:50.300Z,100911.16
2022-12-28T05:36:19.031Z,100905.81
2022-12-28T05:38:45.676Z,100897.31
2022-12-28T05:41:30.686Z,100894.38
2022-12-28T05:43:58.747Z,100889.34
2022-12-28T05:46:31.288Z,100880.91
2022-12-28T05:48:58.053Z,100881.00
2022-12-28T05:51:26.621Z,100874.00
2022-12-28T05:53:53.101Z,100864.50
2022-12-28T05:56:23.013Z,100859.38
2022-12-28T05:59:01.363Z,100847.31
2022-12-28T06:01:30.254Z,100848.28
2022-12-28T06:04:08.437Z,100843.94
2022-12-28T06:06:36.089Z,100841.38
2022-12-28T06:09:02.748Z,100838.59
2022-12-28T06:11:29.497Z,100824.97
2022-12-28T06:13:57.389Z,100831.09
2022-12-28T06:16:26.579Z,100815.75
2022-12-28T06:18:53.313Z,100813.19
2022-12-28T06:21:25.582Z,100800.25
2022-12-28T06:23:53.509Z,100795.09
2022-12-28T06:26:21.448Z,100799.44
2022-12-28T06:28:48.311Z,100786.41
2022-12-28T06:31:16.906Z,100787.41
2022-12-28T06:33:43.711Z,100780.66
2022-12-28T06:36:19.996Z,100779.84
2022-12-28T06:38:48.384Z,100778.00
2022-12-28T06:41:15.393Z,100770.38
2022-12-28T06:43:43.225Z,100766.13
2022-12-28T06:46:10.539Z,100772.16
2022-12-28T06:48:37.001Z,100770.47
2022-12-28T06:51:06.376Z,100769.56
2022-12-28T06:53:35.652Z,100766.13
2022-12-28T06:56:06.891Z,100767.00
2022-12-28T06:58:33.668Z,100758.66
2022-12-28T07:01:16.163Z,100763.00
2022-12-28T07:03:43.454Z,100758.84
2022-12-28T07:06:10.887Z,100763.31
2022-12-28T07:08:37.464Z,100765.16
2022-12-28T07:11:06.154Z,100761.97
2022-12-28T07:13:33.303Z,100758.50
2022-12-28T07:16:04.340Z,100760.38
2022-12-28T07:18:31.290Z,100759.56
2022-12-28T07:21:06.346Z,100755.56
2022-12-28T07:23:33.823Z,100750.25
2022-12-28T07:26:09.603Z,100745.25
2022-12-28T07:28:40.595Z,100737.38
2022-12-28T07:31:08.701Z,100733.84
2022-12-28T07:33:36.106Z,100726.13
2022-12-28T07:36:03.645Z,100730.72
2022-12-28T07:38:30.045Z,100731.69
2022-12-28T07:41:07.708Z,100725.81
2022-12-28T07:43:34.417Z,100718.09
2022-12-28T07:46:01.868Z,100715.00
2022-12-28T07:48:32.067Z,100714.81
2022-12-28T07:50:59.064Z,100717.66
2022-12-28T07:53:25.470Z,100719.34
2022-12-28T07:55:56.800Z,100709.25
2022-12-28T07:58:23.335Z,100708.63
2022-12-28T08:00:50.751Z,100715.59
2022-12-28T08:03:18.217Z,100707.16
2022-12-28T08:05:44.762Z,100702.31
2022-12-28T08:08:11.254Z,100700.78
2022-12-28T08:10:37.654Z,100689.69
2022-12-28T08:13:04.128Z,100692.59
2022-12-28T08:15:30.601Z,100686.75
2022-12-28T08:17:57.035Z,100687.81
2022-12-28T08:20:23.460Z,100690.38
2022-12-28T08:22:49.897Z,100692.16
2022-12-28T08:25:16.338Z,100695.69
2022-12-28T08:27:42.742Z,100681.38
2022-12-28T08:30:10.147Z,100683.94
2022-12-28T08:32:36.541Z,100692.91
2022-12-28T08:35:02.983Z,100683.59
2022-12-28T08:37:29.372Z,100680.47
2022-12-28T08:39:55.784Z,100680.47
2022-12-28T08:42:22.189Z,100680.63
2022-12-28T08:44:48.619Z,100680.88
2022-12-28T08:47:15.093Z,100677.50
2022-12-28T08:49:42.339Z,100669.25
2022-12-28T08:52:08.742Z,100677.03
2022-12-28T08:54:35.146Z,100677.03
2022-12-28T08:57:01.526Z,100666.41
2022-12-28T08:59:28.041Z,100676.00
2022-12-28T09:01:54.622Z,100669.25
2022-12-28T09:04:21.924Z,100660.78
2022-12-28T09:06:48.958Z,100668.50
2022-12-28T09:09:17.415Z,100652.31
2022-12-28T09:11:44.065Z,100667.94
2022-12-28T09:14:18.522Z,100656.03
2022-12-28T09:16:48.870Z,100661.66
2022-12-28T09:19:15.675Z,100665.84
2022-12-28T09:21:42.595Z,100672.13
2022-12-28T09:24:09.046Z,100659.56
2022-12-28T09:26:37.748Z,100661.56
2022-12-28T09:29:06.163Z,100669.63
2022-12-28T09:31:36.970Z,100676.56
2022-12-28T09:37:00.133Z,100651.34
2022-12-28T09:39:26.674Z,100654.28
2022-12-28T09:41:56.034Z,100661.13
2022-12-28T09:44:37.618Z,100655.97
2022-12-28T09:47:18.529Z,100649.28
2022-12-28T09:50:06.793Z,100659.84
2022-12-28T09:52:33.159Z,100660.81
2022-12-28T09:55:06.242Z,100653.28
2022-12-28T09:57:37.056Z,100649.16
2022-12-28T10:00:04.891Z,100648.66
2022-12-28T10:02:32.633Z,100641.09
2022-12-28T10:04:59.313Z,100643.16
2022-12-28T10:07:26.349Z,100646.84
2022-12-28T10:09:52.822Z,100636.66
2022-12-28T10:12:22.030Z,100643.25
2022-12-28T10:14:48.734Z,100645.31
2022-12-28T10:17:16.910Z,100641.09
2022-12-28T10:19:47.128Z,100641.25
2022-12-28T10:22:19.761Z,100637.19
2022-12-28T10:24:46.576Z,100641.69
2022-12-28T10:27:24.965Z,100641.38
2022-12-28T10:29:52.636Z,100642.09
2022-12-28T10:32:19.328Z,100643.19
2022-12-28T10:35:00.963Z,100626.28
2022-12-28T10:37:32.592Z,100632.53
2022-12-28T10:40:01.409Z,100638.75
2022-12-28T10:42:38.676Z,100627.84
2022-12-28T10:45:07.863Z,100630.38
2022-12-28T10:47:36.848Z,100624.81
2022-12-28T10:52:58.509Z,100615.44
2022-12-28T10:55:33.009Z,100614.75
2022-12-28T10:58:29.599Z,100609.81
2022-12-28T11:01:03.793Z,100623.88
2022-12-28T11:03:35.236Z,100611.91
2022-12-28T11:06:12.174Z,100620.59
2022-12-28T11:08:40.878Z,100607.91
2022-12-28T11:11:09.156Z,100630.53
2022-12-28T11:13:36.801Z,100621.16
2022-12-28T11:16:07.880Z,100619.38
2022-12-28T11:18:37.935Z,100615.97
2022-12-28T11:21:04.878Z,100615.44
2022-12-28T11:23:33.107Z,100616.19
2022-12-28T11:25:59.584Z,100613.81
2022-12-28T11:28:25.980Z,100617.34
2022-12-28T11:30:52.777Z,100616.63
2022-12-28T11:33:34.426Z,100615.34
2022-12-28T11:36:05.576Z,100615.81
2022-12-28T11:38:44.635Z,100603.00
2022-12-28T11:41:33.709Z,100606.59
2022-12-28T11:44:07.203Z,100604.06
2022-12-28T11:46:38.549Z,100595.47
2022-12-28T11:49:27.951Z,100595.66
2022-12-28T11:52:17.454Z,100600.00
2022-12-28T11:55:05.124Z,100591.59
2022-12-28T11:57:34.445Z,100593.34
2022-12-28T12:00:22.780Z,100588.19
2022-12-28T12:02:56.508Z,100593.47
2022-12-28T12:05:38.559Z,100593.47
2022-12-28T12:08:17.344Z,100586.66
2022-12-28T12:10:44.768Z,100580.50
2022-12-28T12:13:26.554Z,100585.59
2022-12-28T12:15:55.322Z,100582.31
2022-12-28T12:18:26.659Z,100578.91
2022-12-28T12:21:02.330Z,100572.91
2022-12-28T12:23:48.845Z,100579.84
2022-12-28T12:26:32.839Z,100567.84
2022-12-28T12:29:07.085Z,100561.69
2022-12-28T12:31:56.623Z,100566.78
2022-12-28T12:34:32.907Z,100566.84
2022-12-28T12:37:30.054Z,100555.38
2022-12-28T12:40:14.692Z,100563.38
2022-12-28T12:43:08.925Z,100549.63
2022-12-28T12:45:54.491Z,100560.19
2022-12-28T12:48:32.832Z,100560.09
2022-12-28T12:51:15.192Z,100552.59
2022-12-28T12:53:51.576Z,100551.66
2022-12-28T12:56:40.524Z,100555.19
2022-12-28T12:59:35.009Z,100558.66
2022-12-28T13:02:38.768Z,100556.97
2022-12-28T13:05:06.399Z,100554.25
2022-12-28T13:07:33.615Z,100555.19
2022-12-28T13:10:02.718Z,100554.25
2022-12-28T13:12:29.281Z,100547.44
2022-12-28T13:15:00.948Z,100543.09
2022-12-28T13:17:28.580Z,100538.47
2022-12-28T13:20:19.603Z,100534.31
2022-12-28T13:22:48.209Z,100531.81
2022-12-28T13:25:31.200Z,100521.63
2022-12-28T13:28:00.877Z,100528.56
2022-12-28T13:30:29.138Z,100534.69
2022-12-28T13:36:25.974Z,100528.84
2022-12-28T13:39:06.215Z,100529.63
2022-12-28T13:41:35.374Z,100530.38
2022-12-28T13:44:13.296Z,100522.88
2022-12-28T13:46:45.192Z,100522.94
2022-12-28T13:49:12.663Z,100528.13
2022-12-28T13:51:41.142Z,100522.19
2022-12-28T13:54:08.737Z,100515.34
2022-12-28T13:56:36.660Z,100515.34
2022-12-28T13:59:10.751Z,100519.66
2022-12-28T14:01:42.896Z,100513.75
2022-12-28T14:07:18.703Z,100509.41
2022-12-28T14:09:46.225Z,100506.00
2022-12-28T14:12:13.723Z,100507.72
2022-12-28T14:14:41.046Z,100515.41
2022-12-28T14:17:08.122Z,100512.81
2022-12-28T14:19:35.176Z,100497.31
2022-12-28T14:22:02.179Z,100505.00
2022-12-28T14:24:28.760Z,100497.19
2022-12-28T14:26:59.769Z,100486.84
2022-12-28T14:29:31.540Z,100491.13
2022-12-28T14:31:59.608Z,100486.03
2022-12-28T14:34:31.779Z,100486.91
2022-12-28T14:36:58.904Z,100490.31
2022-12-28T14:39:35.584Z,100484.31
2022-12-28T14:42:15.151Z,100479.91
2022-12-28T14:44:41.661Z,100478.16
2022-12-28T14:47:37.432Z,100479.84
2022-12-28T14:50:19.067Z,100470.22
2022-12-28T14:52:47.613Z,100471.91
2022-12-28T14:55:23.003Z,100470.28
2022-12-28T14:57:52.865Z,100467.53
2022-12-28T15:00:28.778Z,100477.00
2022-12-28T15:02:55.713Z,100473.38
2022-12-28T15:05:41.891Z,100471.66
2022-12-28T15:08:09.228Z,100471.59
2022-12-28T15:10:40.325Z,100469.03
2022-12-28T15:13:06.903Z,100468.19
2022-12-28T15:15:34.585Z,100469.72
2022-12-28T15:18:01.356Z,100467.19
2022-12-28T15:20:28.075Z,100466.31
2022-12-28T15:22:54.754Z,100461.75
2022-12-28T15:25:21.537Z,100463.63
2022-12-28T15:27:52.383Z,100468.09
2022-12-28T15:30:23.084Z,100465.38
2022-12-28T15:32:54.004Z,100461.97
2022-12-28T15:35:20.632Z,100465.28
2022-12-28T15:37:47.116Z,100462.78
2022-12-28T15:40:13.882Z,100464.50
2022-12-28T15:42:44.353Z,100456.66
2022-12-28T15:45:11.083Z,100456.38
2022-12-28T15:47:37.657Z,100453.94
2022-12-28T15:50:05.373Z,100453.72
2022-12-28T15:52:32.375Z,100455.47
2022-12-28T15:54:59.003Z,100459.84
2022-12-28T15:57:26.128Z,100460.53
2022-12-28T15:59:54.227Z,100458.13
2022-12-28T16:02:21.475Z,100457.25
2022-12-28T16:04:48.392Z,100452.94
2022-12-28T16:07:15.373Z,100452.19
2022-12-28T16:09:41.942Z,100450.44
2022-12-28T16:12:08.471Z,100449.53
2022-12-28T16:14:34.988Z,100449.50
2022-12-28T16:17:01.565Z,100454.78
2022-12-28T16:19:28.093Z,100452.06
2022-12-28T16:21:54.677Z,100447.91
2022-12-28T16:24:21.229Z,100447.13
2022-12-28T16:26:47.825Z,100446.25
2022-12-28T16:29:14.505Z,100451.41
2022-12-28T16:31:41.210Z,100448.09
2022-12-28T16:34:11.511Z,100446.41
2022-12-28T16:36:38.510Z,100449.72
2022-12-28T16:39:07.268Z,100443.72
2022-12-28T16:41:37.404Z,100433.25
2022-12-28T16:44:16.608Z,100441.97
2022-12-28T16:46:43.300Z,100431.63
2022-12-28T16:49:13.285Z,100435.03
2022-12-28T16:51:41.823Z,100438.31
2022-12-28T16:54:08.514Z,100427.16
2022-12-28T16:56:35.201Z,100434.03
2022-12-28T16:59:01.754Z,100439.16
2022-12-28T17:01:28.447Z,100434.09
2022-12-28T17:04:01.701Z,100440.91
2022-12-28T17:06:30.095Z,100427.22
2022-12-28T17:08:56.627Z,100436.72
2022-12-28T17:11:23.178Z,100438.50
2022-12-28T17:13:49.707Z,100428.84
2022-12-28T17:16:16.321Z,100427.09
2022-12-28T17:18:43.898Z,100426.22
2022-12-28T17:21:11.675Z,100434.69
2022-12-28T17:23:40.345Z,100431.28
2022-12-28T17:26:08.123Z,100430.34
2022-12-28T17:28:36.319Z,100434.53
2022-12-28T17:31:11.314Z,100430.91
2022-12-28T17:33:40.047Z,100434.38
2022-12-28T17:36:07.850Z,100424.06
2022-12-28T17:38:34.457Z,100422.31
2022-12-28T17:41:07.134Z,100429.19
2022-12-28T17:43:33.724Z,100430.06
2022-12-28T17:46:03.690Z,100423.09
2022-12-28T17:48:30.463Z,100423.09
2022-12-28T17:50:59.030Z,100403.84
2022-12-28T17:53:25.993Z,100392.78
2022-12-28T17:55:52.557Z,100403.94
2022-12-28T17:58:19.019Z,100392.50
2022-12-28T18:00:45.683Z,100398.63
2022-12-28T18:03:12.275Z,100394.28
2022-12-28T18:05:38.841Z,100377.81
2022-12-28T18:08:05.416Z,100360.66
2022-12-28T18:10:31.982Z,100345.94
2022-12-28T18:12:58.557Z,100305.44
2022-12-28T18:15:29.842Z,100321.72
2022-12-28T18:18:00.177Z,100314.78
2022-12-28T18:20:26.871Z,100301.81
2022-12-28T18:22:53.408Z,100300.94
2022-12-28T18:25:20.303Z,100299.22
2022-12-28T18:27:46.896Z,100319.09
2022-12-28T18:30:13.758Z,100307.50
2022-12-28T18:32:40.267Z,100296.53
2022-12-28T18:35:07.623Z,100310.41
2022-12-28T18:37:34.251Z,100298.31
2022-12-28T18:40:00.773Z,100300.94
2022-12-28T18:42:29.026Z,100311.22
2022-12-28T18:44:55.643Z,100301.56
2022-12-28T18:47:22.178Z,100305.75
2022-12-28T18:49:48.717Z,100317.72
2022-12-28T18:52:16.313Z,100303.88
2022-12-28T18:54:42.961Z,100306.50
2022-12-28T18:57:10.657Z,100314.09
2022-12-28T18:59:37.163Z,100305.63
2022-12-28T19:02:06.817Z,100306.44
2022-12-28T19:04:33.752Z,100303.75
2022-12-28T19:07:00.434Z,100301.97
2022-12-28T19:09:26.962Z,100310.69
2022-12-28T19:11:53.660Z,100307.00
2022-12-28T19:14:21.282Z,100312.28
2022-12-28T19:16:47.968Z,100310.59
2022-12-28T19:19:16.946Z,100303.75
2022-12-28T19:21:44.431Z,100300.19
2022-12-28T19:24:14.595Z,100298.59
2022-12-28T19:26:41.515Z,100291.72
2022-12-28T19:29:08.187Z,100293.41
2022-12-28T19:31:34.942Z,100294.31
2022-12-28T19:34:01.790Z,100288.38
2022-12-28T19:36:28.715Z,100289.25
2022-12-28T19:38:56.059Z,100288.38
2022-12-28T19:41:23.149Z,100276.28
2022-12-28T19:43:49.788Z,100268.63
2022-12-28T19:46:21.912Z,100263.47
2022-12-28T19:48:52.943Z,100256.66
2022-12-28T19:51:19.533Z,100253.28
2022-12-28T19:53:46.038Z,100250.75
2022-12-28T19:56:14.677Z,100251.53
2022-12-28T19:58:43.527Z,100247.34
2022-12-28T20:01:22.203Z,100240.47
2022-12-28T20:03:49.094Z,100244.72
2022-12-28T20:06:24.167Z,100246.53
2022-12-28T20:08:58.335Z,100238.84
2022-12-28T20:11:26.410Z,100233.69
2022-12-28T20:13:57.872Z,100218.09
2022-12-28T20:16:27.381Z,100226.69
2022-12-28T20:18:55.623Z,100214.72
2022-12-28T20:21:23.414Z,100205.00
2022-12-28T20:23:51.088Z,100199.03
2022-12-28T20:26:19.064Z,100191.16
2022-12-28T20:28:46.104Z,100183.25
2022-12-28T20:31:14.800Z,100180.66
2022-12-28T20:33:42.084Z,100173.78
2022-12-28T20:36:12.060Z,100171.25
2022-12-28T20:38:38.606Z,100164.97
2022-12-28T20:41:35.918Z,100158.75
2022-12-28T20:44:08.378Z,100153.75
2022-12-28T20:46:35.424Z,100152.09
2022-12-28T20:49:02.373Z,100149.59
2022-12-28T20:51:28.934Z,100153.06
2022-12-28T20:53:55.463Z,100146.94
2022-12-28T20:56:23.172Z,100150.53
2022-12-28T20:58:50.045Z,100141.03
2022-12-28T21:01:17.295Z,100131.63
2022-12-28T21:03:45.372Z,100134.97
2022-12-28T21:06:12.332Z,100122.94
2022-12-28T21:08:38.953Z,100117.72
2022-12-28T21:11:05.732Z,100113.44
2022-12-28T21:13:33.344Z,100108.97
2022-12-28T21:16:04.703Z,100112.59
2022-12-28T21:18:32.457Z,100107.38
2022-12-28T21:21:00.426Z,100097.16
2022-12-28T21:23:29.002Z,100099.75
2022-12-28T21:26:07.295Z,100082.47
2022-12-28T21:28:34.518Z,100072.16
2022-12-28T21:31:03.687Z,100079.06
2022-12-28T21:33:30.848Z,100071.41
2022-12-28T21:36:01.558Z,100069.66
2022-12-28T21:38:30.263Z,100065.31
2022-12-28T21:41:02.248Z,100058.56
2022-12-28T21:43:30.187Z,100054.25
2022-12-28T21:46:07.895Z,100054.22
2022-12-28T21:48:36.868Z,100058.44
2022-12-28T21:51:28.398Z,100052.56
2022-12-28T21:53:55.356Z,100048.91
2022-12-28T21:56:22.041Z,100044.69
2022-12-28T21:58:49.693Z,100040.50
2022-12-28T22:01:35.494Z,100024.91
2022-12-28T22:04:20.708Z,100031.00
2022-12-28T22:06:47.185Z,100031.94
2022-12-28T22:09:32.303Z,100029.28
2022-12-28T22:12:17.593Z,100034.47
2022-12-28T22:14:44.095Z,100038.09
2022-12-28T22:17:14.283Z,100025.25
2022-12-28T22:19:41.224Z,100025.34
2022-12-28T22:22:07.871Z,100020.16
2022-12-28T22:24:34.337Z,100014.78
2022-12-28T22:27:00.882Z,100016.69
2022-12-28T22:29:27.424Z,100017.44
2022-12-28T22:31:54.115Z,100014.91
2022-12-28T22:34:20.704Z,100008.78
2022-12-28T22:36:47.240Z,100007.91
2022-12-28T22:39:13.802Z,99993.13
2022-12-28T22:41:40.390Z,99994.09
2022-12-28T22:44:06.909Z,99994.88
2022-12-28T22:46:33.535Z,99986.47
2022-12-28T22:49:01.148Z,99987.41
2022-12-28T22:51:27.672Z,99971.91
2022-12-28T22:53:54.270Z,99972.00
2022-12-28T22:56:21.228Z,99972.81
2022-12-28T22:58:48.287Z,99975.34
2022-12-28T23:01:17.191Z,99966.69
2022-12-28T23:03:45.516Z,99972.69
2022-12-28T23:06:13.941Z,99966.72
2022-12-28T23:08:40.666Z,99959.69
2022-12-28T23:11:30.267Z,99966.31
2022-12-28T23:14:20.431Z,99958.69
2022-12-28T23:16:47.435Z,99951.78
2022-12-28T23:19:33.348Z,99967.25
2022-12-28T23:22:18.591Z,99954.38
2022-12-28T23:25:03.767Z,99952.66
2022-12-28T23:27:36.671Z,99956.94
2022-12-28T23:30:08.292Z,99954.31
2022-12-28T23:32:34.789Z,99948.28
2022-12-28T23:35:02.316Z,99944.75
2022-12-28T23:37:28.894Z,99937.78
2022-12-28T23:39:55.476Z,99936.88
2022-12-28T23:42:22.037Z,99924.13
2022-12-28T23:44:49.722Z,99925.81
2022-12-28T23:47:17.344Z,99927.56
2022-12-28T23:49:43.804Z,99915.97
2022-12-28T23:52:10.910Z,99920.47
2022-12-28T23:54:37.453Z,99914.41
2022-12-28T23:57:06.034Z,99907.50
2022-12-28T23:59:32.672Z,99906.75
